createdAt,value
2017-04-02T00:00:32.883Z,966.01
2017-04-02T00:01:41.953Z,966.03
2017-04-02T00:02:50.711Z,966
2017-04-02T00:03:59.774Z,966.03
2017-04-02T00:05:08.527Z,966.06
2017-04-02T00:06:17.233Z,966.1
2017-04-02T00:07:26.299Z,966.12
2017-04-02T00:08:35.062Z,966.07
2017-04-02T00:09:43.826Z,966.08
2017-04-02T00:10:52.893Z,966.09
2017-04-02T00:12:01.646Z,966.1
2017-04-02T00:13:10.402Z,966.1
2017-04-02T00:14:19.164Z,966.08
2017-04-02T00:15:28.032Z,966.08
2017-04-02T00:16:36.795Z,966.09
2017-04-02T00:17:45.557Z,966.08
2017-04-02T00:18:54.620Z,966.09
2017-04-02T00:20:03.997Z,966.08
2017-04-02T00:21:12.754Z,966.05
2017-04-02T00:22:21.772Z,966.09
2017-04-02T00:23:30.857Z,966.06
2017-04-02T00:24:39.610Z,966.09
2017-04-02T00:25:48.315Z,966.09
2017-04-02T00:26:57.077Z,966.09
2017-04-02T00:28:05.840Z,966.14
2017-04-02T00:29:14.590Z,966.13
2017-04-02T00:30:23.588Z,966.14
2017-04-02T00:31:32.605Z,966.17
2017-04-02T00:32:41.873Z,966.13
2017-04-02T00:33:50.637Z,966.1
2017-04-02T00:34:59.696Z,966.08
2017-04-02T00:36:08.406Z,966.12
2017-04-02T00:37:17.173Z,966.13
2017-04-02T00:38:25.924Z,966.11
2017-04-02T00:39:34.635Z,966.11
2017-04-02T00:40:43.700Z,966.08
2017-04-02T00:41:52.443Z,966.08
2017-04-02T00:43:01.139Z,966.05
2017-04-02T00:44:09.852Z,966.05
2017-04-02T00:45:18.607Z,966.05
2017-04-02T00:46:27.380Z,966.09
2017-04-02T00:47:36.136Z,966.08
2017-04-02T00:48:45.198Z,966.08
2017-04-02T00:49:54.261Z,966.1
2017-04-02T00:51:03.005Z,966.12
2017-04-02T00:52:12.018Z,966.13
2017-04-02T00:53:20.785Z,966.14
2017-04-02T00:54:29.543Z,966.13
2017-04-02T00:55:38.239Z,966.16
2017-04-02T00:56:47.249Z,966.16
2017-04-02T00:57:56.311Z,966.18
2017-04-02T00:59:05.062Z,966.17
2017-04-02T01:00:13.818Z,966.22
2017-04-02T01:01:22.583Z,966.22
2017-04-02T01:02:31.345Z,966.25
2017-04-02T01:03:40.108Z,966.26
2017-04-02T01:04:48.966Z,966.22
2017-04-02T01:05:57.735Z,966.32
2017-04-02T01:07:06.509Z,966.33
2017-04-02T01:08:15.582Z,966.32
2017-04-02T01:09:24.345Z,966.34
2017-04-02T01:10:33.115Z,966.36
2017-04-02T01:11:42.183Z,966.37
2017-04-02T01:12:51.550Z,966.37
2017-04-02T01:14:00.316Z,966.37
2017-04-02T01:15:09.077Z,966.36
2017-04-02T01:16:17.845Z,966.32
2017-04-02T01:17:26.588Z,966.33
2017-04-02T01:18:35.319Z,966.39
2017-04-02T01:19:44.059Z,966.4
2017-04-02T01:20:52.825Z,966.37
2017-04-02T01:22:01.891Z,966.41
2017-04-02T01:23:11.592Z,966.38
2017-04-02T01:24:20.348Z,966.4
2017-04-02T01:25:29.056Z,966.41
2017-04-02T01:26:38.131Z,966.43
2017-04-02T01:27:46.904Z,966.4
2017-04-02T01:28:55.654Z,966.43
2017-04-02T01:30:04.664Z,966.4
2017-04-02T01:31:13.410Z,966.41
2017-04-02T01:32:22.105Z,966.42
2017-04-02T01:33:30.796Z,966.45
2017-04-02T01:34:39.503Z,966.42
2017-04-02T01:35:48.267Z,966.47
2017-04-02T01:36:57.029Z,966.44
2017-04-02T01:38:06.037Z,966.44
2017-04-02T01:39:14.803Z,966.43
2017-04-02T01:40:23.568Z,966.43
2017-04-02T01:41:32.330Z,966.41
2017-04-02T01:42:41.086Z,966.43
2017-04-02T01:43:49.845Z,966.46
2017-04-02T01:44:58.593Z,966.45
2017-04-02T01:46:07.612Z,966.49
2017-04-02T01:47:16.359Z,966.5
2017-04-02T01:48:25.060Z,966.54
2017-04-02T01:49:34.119Z,966.55
2017-04-02T01:50:42.881Z,966.57
2017-04-02T01:51:51.642Z,966.54
2017-04-02T01:53:00.425Z,966.55
2017-04-02T01:54:09.132Z,966.54
2017-04-02T01:55:17.840Z,966.54
2017-04-02T01:56:26.923Z,966.52
2017-04-02T01:57:35.691Z,966.52
2017-04-02T01:58:44.448Z,966.54
2017-04-02T01:59:53.219Z,966.5
2017-04-02T02:01:01.987Z,966.52
2017-04-02T02:02:11.051Z,966.52
2017-04-02T02:03:19.760Z,966.54
2017-04-02T02:04:28.838Z,966.6
2017-04-02T02:05:37.602Z,966.55
2017-04-02T02:06:46.377Z,966.59
2017-04-02T02:07:55.434Z,966.6
2017-04-02T02:09:04.137Z,966.58
2017-04-02T02:10:12.884Z,966.61
2017-04-02T02:11:21.586Z,966.6
2017-04-02T02:12:30.350Z,966.6
2017-04-02T02:13:39.113Z,966.65
2017-04-02T02:14:47.866Z,966.69
2017-04-02T02:15:56.603Z,966.7
2017-04-02T02:17:05.309Z,966.72
2017-04-02T02:18:14.075Z,966.72
2017-04-02T02:19:22.837Z,966.73
2017-04-02T02:20:31.597Z,966.76
2017-04-02T02:21:40.351Z,966.76
2017-04-02T02:22:49.419Z,966.76
2017-04-02T02:23:58.182Z,966.75
2017-04-02T02:25:07.253Z,966.76
2017-04-02T02:26:16.017Z,966.81
2017-04-02T02:27:25.076Z,966.78
2017-04-02T02:28:34.138Z,966.84
2017-04-02T02:29:42.900Z,966.85
2017-04-02T02:30:51.967Z,966.9
2017-04-02T02:32:00.733Z,966.85
2017-04-02T02:33:09.530Z,966.86
2017-04-02T02:34:18.288Z,966.88
2017-04-02T02:35:27.355Z,966.87
2017-04-02T02:36:36.718Z,966.87
2017-04-02T02:37:45.475Z,966.89
2017-04-02T02:38:54.240Z,966.88
2017-04-02T02:40:02.999Z,966.9
2017-04-02T02:41:11.754Z,966.87
2017-04-02T02:42:20.826Z,966.9
2017-04-02T02:43:29.579Z,966.93
2017-04-02T02:44:38.354Z,966.89
2017-04-02T02:45:47.111Z,966.93
2017-04-02T02:46:55.891Z,966.92
2017-04-02T02:48:04.706Z,966.89
2017-04-02T02:49:13.465Z,966.9
2017-04-02T02:50:22.529Z,966.88
2017-04-02T02:51:31.585Z,966.88
2017-04-02T02:52:40.649Z,966.91
2017-04-02T02:53:49.355Z,966.94
2017-04-02T02:54:58.107Z,966.93
2017-04-02T02:56:06.874Z,966.99
2017-04-02T02:57:15.633Z,967
2017-04-02T02:58:24.382Z,967.01
2017-04-02T02:59:33.409Z,967.03
2017-04-02T03:00:42.170Z,967.05
2017-04-02T03:01:50.937Z,967.08
2017-04-02T03:02:59.995Z,967.1
2017-04-02T03:04:09.005Z,967.1
2017-04-02T03:05:17.738Z,967.08
2017-04-02T03:06:26.479Z,967.1
2017-04-02T03:07:35.184Z,967.08
2017-04-02T03:08:43.938Z,967.03
2017-04-02T03:09:52.699Z,967.05
2017-04-02T03:11:01.459Z,967.03
2017-04-02T03:12:10.220Z,967
2017-04-02T03:13:19.584Z,967.01
2017-04-02T03:14:28.328Z,967.01
2017-04-02T03:15:37.394Z,967.05
2017-04-02T03:16:46.454Z,967.04
2017-04-02T03:17:55.459Z,967.03
2017-04-02T03:19:04.251Z,967.09
2017-04-02T03:20:13.013Z,967.08
2017-04-02T03:21:21.762Z,967.08
2017-04-02T03:22:30.460Z,967.06
2017-04-02T03:23:39.520Z,967.09
2017-04-02T03:24:48.273Z,967.09
2017-04-02T03:25:57.028Z,967.11
2017-04-02T03:27:05.760Z,967.11
2017-04-02T03:28:14.465Z,967.1
2017-04-02T03:29:23.223Z,967.13
2017-04-02T03:30:32.188Z,967.13
2017-04-02T03:31:40.944Z,967.14
2017-04-02T03:32:50.014Z,967.16
2017-04-02T03:33:58.756Z,967.16
2017-04-02T03:35:07.661Z,967.21
2017-04-02T03:36:16.725Z,967.2
2017-04-02T03:37:25.486Z,967.24
2017-04-02T03:38:34.447Z,967.25
2017-04-02T03:39:43.206Z,967.29
2017-04-02T03:40:52.506Z,967.31
2017-04-02T03:42:01.255Z,967.3
2017-04-02T03:43:09.959Z,967.3
2017-04-02T03:44:19.022Z,967.34
2017-04-02T03:45:28.085Z,967.32
2017-04-02T03:46:37.146Z,967.35
2017-04-02T03:47:45.909Z,967.36
2017-04-02T03:48:54.672Z,967.38
2017-04-02T03:50:03.734Z,967.37
2017-04-02T03:51:12.794Z,967.41
2017-04-02T03:52:21.550Z,967.39
2017-04-02T03:53:30.689Z,967.42
2017-04-02T03:54:39.383Z,967.44
2017-04-02T03:55:48.125Z,967.44
2017-04-02T03:56:56.887Z,967.44
2017-04-02T03:58:06.249Z,967.4
2017-04-02T03:59:15.008Z,967.46
2017-04-02T04:00:23.801Z,967.46
2017-04-02T04:01:33.163Z,967.47
2017-04-02T04:02:41.882Z,967.5
2017-04-02T04:03:50.632Z,967.5
2017-04-02T04:04:59.371Z,967.5
2017-04-02T04:06:08.440Z,967.51
2017-04-02T04:07:17.206Z,967.53
2017-04-02T04:08:25.970Z,967.56
2017-04-02T04:09:34.881Z,967.55
2017-04-02T04:10:43.644Z,967.57
2017-04-02T04:11:52.398Z,967.58
2017-04-02T04:13:01.110Z,967.61
2017-04-02T04:14:09.863Z,967.63
2017-04-02T04:15:18.565Z,967.67
2017-04-02T04:16:27.627Z,967.7
2017-04-02T04:17:36.687Z,967.71
2017-04-02T04:18:45.443Z,967.71
2017-04-02T04:19:54.206Z,967.7
2017-04-02T04:21:03.278Z,967.74
2017-04-02T04:22:12.045Z,967.73
2017-04-02T04:23:21.099Z,967.74
2017-04-02T04:24:29.796Z,967.76
2017-04-02T04:25:38.536Z,967.77
2017-04-02T04:26:47.246Z,967.82
2017-04-02T04:27:56.308Z,967.82
2017-04-02T04:29:05.068Z,967.85
2017-04-02T04:30:14.123Z,967.84
2017-04-02T04:31:22.820Z,967.85
2017-04-02T04:32:31.515Z,967.84
2017-04-02T04:33:40.761Z,967.85
2017-04-02T04:34:49.453Z,967.89
2017-04-02T04:35:58.201Z,967.89
2017-04-02T04:37:07.582Z,967.89
2017-04-02T04:38:16.681Z,967.88
2017-04-02T04:39:25.746Z,967.88
2017-04-02T04:40:34.508Z,967.89
2017-04-02T04:41:43.264Z,967.89
2017-04-02T04:42:52.028Z,967.92
2017-04-02T04:44:01.082Z,967.96
2017-04-02T04:45:09.847Z,967.91
2017-04-02T04:46:18.921Z,967.92
2017-04-02T04:47:27.687Z,967.93
2017-04-02T04:48:36.482Z,967.97
2017-04-02T04:49:45.287Z,968.02
2017-04-02T04:50:54.281Z,968.03
2017-04-02T04:52:03.346Z,968.08
2017-04-02T04:53:12.444Z,968.12
2017-04-02T04:54:21.207Z,968.14
2017-04-02T04:55:29.965Z,968.13
2017-04-02T04:56:39.335Z,968.16
2017-04-02T04:57:48.102Z,968.16
2017-04-02T04:58:57.070Z,968.22
2017-04-02T05:00:05.833Z,968.22
2017-04-02T05:01:14.590Z,968.24
2017-04-02T05:02:23.621Z,968.2
2017-04-02T05:03:32.624Z,968.23
2017-04-02T05:04:41.377Z,968.22
2017-04-02T05:05:50.428Z,968.27
2017-04-02T05:06:59.130Z,968.18
2017-04-02T05:08:07.819Z,968.23
2017-04-02T05:09:16.562Z,968.24
2017-04-02T05:10:25.326Z,968.23
2017-04-02T05:11:34.388Z,968.25
2017-04-02T05:12:43.145Z,968.27
2017-04-02T05:13:51.898Z,968.3
2017-04-02T05:15:00.959Z,968.35
2017-04-02T05:16:09.720Z,968.32
2017-04-02T05:17:18.493Z,968.38
2017-04-02T05:18:27.286Z,968.38
2017-04-02T05:19:36.645Z,968.37
2017-04-02T05:20:45.410Z,968.36
2017-04-02T05:21:54.166Z,968.38
2017-04-02T05:23:03.726Z,968.4
2017-04-02T05:24:13.103Z,968.35
2017-04-02T05:25:21.863Z,968.4
2017-04-02T05:26:30.929Z,968.42
2017-04-02T05:27:40.005Z,968.38
2017-04-02T05:28:48.772Z,968.42
2017-04-02T05:29:57.827Z,968.44
2017-04-02T05:31:06.890Z,968.43
2017-04-02T05:32:15.658Z,968.47
2017-04-02T05:33:24.710Z,968.5
2017-04-02T05:34:33.816Z,968.49
2017-04-02T05:35:42.571Z,968.5
2017-04-02T05:36:51.640Z,968.51
2017-04-02T05:38:00.412Z,968.53
2017-04-02T05:39:09.176Z,968.57
2017-04-02T05:40:17.930Z,968.59
2017-04-02T05:41:26.687Z,968.6
2017-04-02T05:42:35.440Z,968.62
2017-04-02T05:43:44.192Z,968.65
2017-04-02T05:44:52.944Z,968.66
2017-04-02T05:46:01.706Z,968.65
2017-04-02T05:47:10.500Z,968.68
2017-04-02T05:48:19.276Z,968.68
2017-04-02T05:49:28.040Z,968.7
2017-04-02T05:50:36.793Z,968.71
2017-04-02T05:51:45.485Z,968.7
2017-04-02T05:52:54.552Z,968.71
2017-04-02T05:54:03.313Z,968.76
2017-04-02T05:55:12.061Z,968.78
2017-04-02T05:56:20.823Z,968.77
2017-04-02T05:57:29.928Z,968.79
2017-04-02T05:58:38.685Z,968.83
2017-04-02T05:59:47.443Z,968.87
2017-04-02T06:00:56.211Z,968.84
2017-04-02T06:02:04.982Z,968.86
2017-04-02T06:03:13.792Z,968.88
2017-04-02T06:04:22.563Z,968.88
2017-04-02T06:05:31.413Z,968.9
2017-04-02T06:06:40.141Z,968.96
2017-04-02T06:07:48.904Z,968.98
2017-04-02T06:08:57.655Z,968.97
2017-04-02T06:10:06.964Z,969.01
2017-04-02T06:11:15.720Z,969.07
2017-04-02T06:12:24.531Z,969.1
2017-04-02T06:13:33.599Z,969.1
2017-04-02T06:14:42.355Z,969.1
2017-04-02T06:15:51.418Z,969.1
2017-04-02T06:17:00.466Z,969.07
2017-04-02T06:18:09.211Z,969.1
2017-04-02T06:19:17.959Z,969.16
2017-04-02T06:20:26.651Z,969.15
2017-04-02T06:21:35.393Z,969.15
2017-04-02T06:22:45.060Z,969.2
2017-04-02T06:23:53.801Z,969.19
2017-04-02T06:25:02.507Z,969.24
2017-04-02T06:26:11.473Z,969.23
2017-04-02T06:27:20.226Z,969.22
2017-04-02T06:28:29.216Z,969.25
2017-04-02T06:29:38.063Z,969.27
2017-04-02T06:30:46.799Z,969.25
2017-04-02T06:31:55.817Z,969.27
2017-04-02T06:33:04.519Z,969.3
2017-04-02T06:34:13.427Z,969.3
2017-04-02T06:35:22.188Z,969.28
2017-04-02T06:36:31.557Z,969.31
2017-04-02T06:37:40.502Z,969.35
2017-04-02T06:38:49.203Z,969.35
2017-04-02T06:39:57.957Z,969.34
2017-04-02T06:41:07.001Z,969.35
2017-04-02T06:42:15.710Z,969.33
2017-04-02T06:43:24.451Z,969.4
2017-04-02T06:44:33.198Z,969.37
2017-04-02T06:45:41.923Z,969.36
2017-04-02T06:46:50.639Z,969.35
2017-04-02T06:47:59.392Z,969.39
2017-04-02T06:49:08.144Z,969.4
2017-04-02T06:50:16.904Z,969.42
2017-04-02T06:51:25.608Z,969.42
2017-04-02T06:52:34.958Z,969.49
2017-04-02T06:53:43.868Z,969.48
2017-04-02T06:54:52.629Z,969.52
2017-04-02T06:56:01.381Z,969.49
2017-04-02T06:57:11.048Z,969.5
2017-04-02T06:58:19.807Z,969.54
2017-04-02T06:59:28.547Z,969.55
2017-04-02T07:00:37.253Z,969.56
2017-04-02T07:01:46.020Z,969.56
2017-04-02T07:02:55.088Z,969.6
2017-04-02T07:04:04.470Z,969.62
2017-04-02T07:05:13.579Z,969.68
2017-04-02T07:06:22.333Z,969.68
2017-04-02T07:07:31.401Z,969.71
2017-04-02T07:08:40.159Z,969.66
2017-04-02T07:09:48.926Z,969.72
2017-04-02T07:10:57.973Z,969.7
2017-04-02T07:12:06.673Z,969.72
2017-04-02T07:13:15.729Z,969.68
2017-04-02T07:14:24.428Z,969.75
2017-04-02T07:15:33.433Z,969.76
2017-04-02T07:16:42.804Z,969.76
2017-04-02T07:17:51.602Z,969.75
2017-04-02T07:19:00.365Z,969.73
2017-04-02T07:20:09.637Z,969.81
2017-04-02T07:21:18.403Z,969.76
2017-04-02T07:22:27.159Z,969.76
2017-04-02T07:23:35.942Z,969.73
2017-04-02T07:24:44.694Z,969.77
2017-04-02T07:25:53.402Z,969.73
2017-04-02T07:27:02.162Z,969.78
2017-04-02T07:28:10.907Z,969.79
2017-04-02T07:29:19.611Z,969.81
2017-04-02T07:30:28.558Z,969.86
2017-04-02T07:31:37.566Z,969.89
2017-04-02T07:32:46.331Z,969.89
2017-04-02T07:33:55.095Z,969.92
2017-04-02T07:35:04.092Z,969.94
2017-04-02T07:36:12.852Z,969.94
2017-04-02T07:37:21.611Z,969.94
2017-04-02T07:38:30.379Z,969.93
2017-04-02T07:39:39.138Z,969.93
2017-04-02T07:40:48.405Z,969.93
2017-04-02T07:41:57.473Z,969.93
2017-04-02T07:43:06.545Z,969.96
2017-04-02T07:44:15.299Z,969.97
2017-04-02T07:45:24.056Z,969.97
2017-04-02T07:46:33.057Z,969.98
2017-04-02T07:47:41.820Z,970.02
2017-04-02T07:48:50.631Z,970.02
2017-04-02T07:49:59.988Z,970.06
2017-04-02T07:51:08.753Z,970.07
2017-04-02T07:52:17.822Z,970.08
2017-04-02T07:53:26.585Z,970.09
2017-04-02T07:54:35.338Z,970.07
2017-04-02T07:55:44.113Z,970.07
2017-04-02T07:56:53.178Z,970.09
2017-04-02T07:58:02.149Z,970.08
2017-04-02T07:59:10.922Z,970.11
2017-04-02T08:00:19.678Z,970.12
2017-04-02T08:01:28.746Z,970.14
2017-04-02T08:02:37.510Z,970.15
2017-04-02T08:03:46.582Z,970.15
2017-04-02T08:04:55.333Z,970.17
2017-04-02T08:06:04.080Z,970.21
2017-04-02T08:07:12.831Z,970.18
2017-04-02T08:08:21.791Z,970.21
2017-04-02T08:09:30.555Z,970.23
2017-04-02T08:10:39.558Z,970.27
2017-04-02T08:11:48.263Z,970.27
2017-04-02T08:12:57.021Z,970.25
2017-04-02T08:14:05.796Z,970.27
2017-04-02T08:15:14.554Z,970.3
2017-04-02T08:16:23.253Z,970.34
2017-04-02T08:17:31.999Z,970.33
2017-04-02T08:18:40.703Z,970.35
2017-04-02T08:19:49.770Z,970.34
2017-04-02T08:20:58.530Z,970.37
2017-04-02T08:22:07.298Z,970.33
2017-04-02T08:23:16.677Z,970.36
2017-04-02T08:24:25.439Z,970.38
2017-04-02T08:25:34.202Z,970.39
2017-04-02T08:26:42.962Z,970.44
2017-04-02T08:27:51.723Z,970.44
2017-04-02T08:29:00.476Z,970.45
2017-04-02T08:30:09.244Z,970.46
2017-04-02T08:31:18.011Z,970.47
2017-04-02T08:32:26.771Z,970.49
2017-04-02T08:33:35.937Z,970.5
2017-04-02T08:34:44.912Z,970.54
2017-04-02T08:35:53.657Z,970.54
2017-04-02T08:37:02.410Z,970.53
2017-04-02T08:38:11.435Z,970.56
2017-04-02T08:39:20.217Z,970.55
2017-04-02T08:40:29.277Z,970.59
2017-04-02T08:41:38.021Z,970.57
2017-04-02T08:42:46.723Z,970.65
2017-04-02T08:43:55.484Z,970.61
2017-04-02T08:45:04.245Z,970.67
2017-04-02T08:46:13.308Z,970.66
2017-04-02T08:47:22.370Z,970.7
2017-04-02T08:48:31.123Z,970.67
2017-04-02T08:49:40.141Z,970.72
2017-04-02T08:50:49.512Z,970.73
2017-04-02T08:51:58.270Z,970.72
2017-04-02T08:53:07.343Z,970.72
2017-04-02T08:54:16.110Z,970.68
2017-04-02T08:55:24.869Z,970.73
2017-04-02T08:56:33.784Z,970.71
2017-04-02T08:57:42.550Z,970.72
2017-04-02T08:58:51.321Z,970.76
2017-04-02T09:00:00.074Z,970.77
2017-04-02T09:01:08.830Z,970.81
2017-04-02T09:02:17.595Z,970.79
2017-04-02T09:03:26.673Z,970.78
2017-04-02T09:04:35.440Z,970.78
2017-04-02T09:05:44.544Z,970.82
2017-04-02T09:06:53.501Z,970.82
2017-04-02T09:08:02.261Z,970.86
2017-04-02T09:09:11.326Z,970.86
2017-04-02T09:10:20.093Z,970.86
2017-04-02T09:11:29.153Z,970.89
2017-04-02T09:12:38.320Z,970.93
2017-04-02T09:13:47.086Z,970.91
2017-04-02T09:14:55.844Z,970.89
2017-04-02T09:16:04.605Z,970.95
2017-04-02T09:17:13.365Z,970.95
2017-04-02T09:18:22.131Z,970.97
2017-04-02T09:19:31.239Z,971
2017-04-02T09:20:40.905Z,971
2017-04-02T09:21:50.269Z,971.07
2017-04-02T09:22:59.332Z,971.07
2017-04-02T09:24:08.048Z,971.09
2017-04-02T09:25:17.429Z,971.1
2017-04-02T09:26:26.801Z,971.12
2017-04-02T09:27:35.874Z,971.15
2017-04-02T09:28:44.630Z,971.21
2017-04-02T09:29:53.394Z,971.21
2017-04-02T09:31:02.448Z,971.23
2017-04-02T09:32:11.157Z,971.26
2017-04-02T09:33:19.918Z,971.27
2017-04-02T09:34:29.000Z,971.33
2017-04-02T09:35:37.763Z,971.28
2017-04-02T09:36:46.505Z,971.32
2017-04-02T09:37:55.562Z,971.26
2017-04-02T09:39:04.324Z,971.31
2017-04-02T09:40:13.093Z,971.3
2017-04-02T09:41:21.841Z,971.26
2017-04-02T09:42:31.167Z,971.31
2017-04-02T09:43:39.910Z,971.3
2017-04-02T09:44:48.817Z,971.3
2017-04-02T09:45:58.193Z,971.29
2017-04-02T09:47:07.272Z,971.36
2017-04-02T09:48:16.010Z,971.4
2017-04-02T09:49:25.071Z,971.4
2017-04-02T09:50:34.140Z,971.36
2017-04-02T09:51:42.911Z,971.41
2017-04-02T09:52:51.676Z,971.46
2017-04-02T09:54:00.442Z,971.45
2017-04-02T09:55:09.209Z,971.49
2017-04-02T09:56:17.967Z,971.44
2017-04-02T09:57:27.032Z,971.44
2017-04-02T09:58:36.145Z,971.45
2017-04-02T09:59:44.890Z,971.49
2017-04-02T10:00:53.603Z,971.5
2017-04-02T10:02:02.374Z,971.46
2017-04-02T10:03:11.135Z,971.44
2017-04-02T10:04:19.897Z,971.49
2017-04-02T10:05:28.953Z,971.51
2017-04-02T10:06:37.664Z,971.45
2017-04-02T10:07:46.424Z,971.44
2017-04-02T10:08:55.197Z,971.37
2017-04-02T10:10:04.557Z,971.38
2017-04-02T10:11:13.568Z,971.46
2017-04-02T10:12:22.343Z,971.42
2017-04-02T10:13:31.420Z,971.46
2017-04-02T10:14:40.368Z,971.56
2017-04-02T10:15:49.394Z,971.64
2017-04-02T10:16:58.701Z,971.72
2017-04-02T10:18:07.465Z,971.73
2017-04-02T10:19:16.225Z,971.74
2017-04-02T10:20:25.003Z,971.7
2017-04-02T10:21:34.073Z,971.51
2017-04-02T10:22:43.116Z,971.51
2017-04-02T10:23:52.222Z,971.5
2017-04-02T10:25:00.989Z,971.45
2017-04-02T10:26:09.746Z,971.45
2017-04-02T10:27:18.515Z,971.43
2017-04-02T10:28:27.689Z,971.53
2017-04-02T10:29:36.443Z,971.5
2017-04-02T10:30:45.204Z,971.5
2017-04-02T10:31:53.959Z,971.48
2017-04-02T10:33:02.706Z,971.5
2017-04-02T10:34:11.416Z,971.5
2017-04-02T10:35:20.175Z,971.46
2017-04-02T10:36:29.529Z,971.43
2017-04-02T10:37:38.336Z,971.48
2017-04-02T10:38:47.696Z,971.48
2017-04-02T10:39:56.401Z,971.45
2017-04-02T10:41:05.162Z,971.51
2017-04-02T10:42:14.209Z,971.55
2017-04-02T10:43:22.953Z,971.58
2017-04-02T10:44:31.709Z,971.55
2017-04-02T10:45:40.872Z,971.57
2017-04-02T10:46:50.244Z,971.54
2017-04-02T10:47:59.003Z,971.51
2017-04-02T10:49:07.765Z,971.52
2017-04-02T10:50:16.538Z,971.51
2017-04-02T10:51:25.247Z,971.52
2017-04-02T10:52:34.463Z,971.51
2017-04-02T10:53:43.525Z,971.46
2017-04-02T10:54:52.280Z,971.45
2017-04-02T10:56:01.345Z,971.49
2017-04-02T10:57:10.715Z,971.49
2017-04-02T10:58:19.484Z,971.49
2017-04-02T10:59:28.549Z,971.44
2017-04-02T11:00:37.296Z,971.5
2017-04-02T11:01:46.000Z,971.56
2017-04-02T11:02:55.065Z,971.53
2017-04-02T11:04:03.821Z,971.55
2017-04-02T11:05:12.584Z,971.52
2017-04-02T11:06:21.344Z,971.54
2017-04-02T11:07:30.393Z,971.51
2017-04-02T11:08:39.404Z,971.48
2017-04-02T11:09:48.163Z,971.5
2017-04-02T11:10:56.929Z,971.54
2017-04-02T11:12:06.292Z,971.53
2017-04-02T11:13:15.055Z,971.6
2017-04-02T11:14:23.803Z,971.56
2017-04-02T11:15:32.575Z,971.65
2017-04-02T11:16:41.339Z,971.59
2017-04-02T11:17:50.087Z,971.63
2017-04-02T11:18:58.792Z,971.66
2017-04-02T11:20:07.557Z,971.7
2017-04-02T11:21:16.312Z,971.63
2017-04-02T11:22:25.060Z,971.61
2017-04-02T11:23:33.775Z,971.56
2017-04-02T11:24:42.545Z,971.6
2017-04-02T11:25:51.302Z,971.64
2017-04-02T11:27:00.062Z,971.59
2017-04-02T11:28:09.129Z,971.54
2017-04-02T11:29:17.885Z,971.54
2017-04-02T11:30:26.637Z,971.66
2017-04-02T11:31:35.637Z,971.63
2017-04-02T11:32:44.342Z,971.64
2017-04-02T11:33:53.102Z,971.59
2017-04-02T11:35:02.170Z,971.64
2017-04-02T11:36:11.224Z,971.63
2017-04-02T11:37:19.987Z,971.61
2017-04-02T11:38:29.050Z,971.64
2017-04-02T11:39:37.811Z,971.59
2017-04-02T11:40:46.572Z,971.59
2017-04-02T11:41:55.341Z,971.67
2017-04-02T11:43:04.315Z,971.66
2017-04-02T11:44:13.078Z,971.68
2017-04-02T11:45:21.843Z,971.73
2017-04-02T11:46:30.606Z,971.73
2017-04-02T11:47:39.617Z,971.71
2017-04-02T11:48:48.378Z,971.69
2017-04-02T11:49:57.141Z,971.72
2017-04-02T11:51:05.905Z,971.75
2017-04-02T11:52:14.670Z,971.61
2017-04-02T11:53:23.638Z,971.68
2017-04-02T11:54:32.342Z,971.67
2017-04-02T11:55:41.106Z,971.68
2017-04-02T11:56:49.864Z,971.72
2017-04-02T11:57:58.615Z,971.72
2017-04-02T11:59:07.663Z,971.74
2017-04-02T12:00:16.415Z,971.75
2017-04-02T12:01:25.131Z,971.82
2017-04-02T12:02:33.915Z,971.76
2017-04-02T12:03:42.678Z,971.78
2017-04-02T12:04:51.443Z,971.79
2017-04-02T12:06:00.509Z,971.73
2017-04-02T12:07:09.276Z,971.7
2017-04-02T12:08:18.039Z,971.69
2017-04-02T12:09:27.407Z,971.72
2017-04-02T12:10:36.167Z,971.72
2017-04-02T12:11:44.932Z,971.72
2017-04-02T12:12:53.704Z,971.74
2017-04-02T12:14:02.470Z,971.67
2017-04-02T12:15:11.211Z,971.67
2017-04-02T12:16:19.921Z,971.73
2017-04-02T12:17:28.688Z,971.73
2017-04-02T12:18:37.754Z,971.73
2017-04-02T12:19:47.128Z,971.74
2017-04-02T12:20:55.892Z,971.79
2017-04-02T12:22:04.657Z,971.76
2017-04-02T12:23:13.421Z,971.74
2017-04-02T12:24:22.529Z,971.79
2017-04-02T12:25:31.494Z,971.73
2017-04-02T12:26:40.254Z,971.79
2017-04-02T12:27:49.329Z,971.82
2017-04-02T12:28:58.405Z,971.77
2017-04-02T12:30:07.113Z,971.82
2017-04-02T12:31:15.878Z,971.82
2017-04-02T12:32:24.648Z,971.83
2017-04-02T12:33:33.396Z,971.79
2017-04-02T12:34:42.259Z,971.82
2017-04-02T12:35:51.816Z,971.82
2017-04-02T12:37:00.514Z,971.83
2017-04-02T12:38:09.220Z,971.8
2017-04-02T12:39:17.974Z,971.83
2017-04-02T12:40:26.718Z,971.82
2017-04-02T12:41:35.407Z,971.83
2017-04-02T12:42:44.115Z,971.87
2017-04-02T12:43:52.854Z,971.85
2017-04-02T12:45:01.565Z,971.83
2017-04-02T12:46:10.360Z,971.81
2017-04-02T12:47:19.103Z,971.79
2017-04-02T12:48:27.814Z,971.84
2017-04-02T12:49:36.579Z,971.83
2017-04-02T12:50:45.638Z,971.82
2017-04-02T12:51:54.440Z,971.82
2017-04-02T12:53:03.199Z,971.84
2017-04-02T12:54:11.963Z,971.84
2017-04-02T12:55:21.032Z,971.84
2017-04-02T12:56:29.799Z,971.84
2017-04-02T12:57:38.565Z,971.81
2017-04-02T12:58:47.651Z,971.8
2017-04-02T12:59:56.365Z,971.78
2017-04-02T13:01:05.122Z,971.78
2017-04-02T13:02:13.883Z,971.78
2017-04-02T13:03:22.637Z,971.76
2017-04-02T13:04:31.398Z,971.73
2017-04-02T13:05:40.153Z,971.72
2017-04-02T13:06:48.921Z,971.73
2017-04-02T13:07:57.972Z,971.73
2017-04-02T13:09:07.022Z,971.77
2017-04-02T13:10:15.775Z,971.76
2017-04-02T13:11:24.540Z,971.79
2017-04-02T13:12:33.618Z,971.79
2017-04-02T13:13:42.581Z,971.78
2017-04-02T13:14:51.348Z,971.81
2017-04-02T13:16:00.723Z,971.8
2017-04-02T13:17:10.107Z,971.82
2017-04-02T13:18:19.180Z,971.81
2017-04-02T13:19:28.239Z,971.86
2017-04-02T13:20:36.998Z,971.84
2017-04-02T13:21:45.754Z,971.83
2017-04-02T13:22:54.825Z,971.84
2017-04-02T13:24:03.887Z,971.84
2017-04-02T13:25:12.645Z,971.86
2017-04-02T13:26:21.388Z,971.87
2017-04-02T13:27:30.153Z,971.87
2017-04-02T13:28:39.012Z,971.86
2017-04-02T13:29:47.769Z,971.85
2017-04-02T13:30:56.834Z,971.89
2017-04-02T13:32:05.600Z,971.88
2017-04-02T13:33:14.660Z,971.86
2017-04-02T13:34:23.393Z,971.9
2017-04-02T13:35:32.146Z,971.87
2017-04-02T13:36:41.503Z,971.88
2017-04-02T13:37:50.565Z,971.84
2017-04-02T13:38:59.321Z,971.87
2017-04-02T13:40:08.086Z,971.87
2017-04-02T13:41:17.040Z,971.86
2017-04-02T13:42:25.794Z,971.89
2017-04-02T13:43:34.486Z,971.95
2017-04-02T13:44:43.194Z,971.93
2017-04-02T13:45:51.958Z,971.94
2017-04-02T13:47:00.716Z,971.94
2017-04-02T13:48:09.475Z,971.95
2017-04-02T13:49:18.236Z,971.93
2017-04-02T13:50:26.986Z,971.99
2017-04-02T13:51:35.882Z,971.99
2017-04-02T13:52:44.891Z,971.93
2017-04-02T13:53:53.647Z,971.94
2017-04-02T13:55:02.748Z,971.98
2017-04-02T13:56:11.807Z,971.95
2017-04-02T13:57:20.568Z,971.95
2017-04-02T13:58:29.318Z,971.95
2017-04-02T13:59:38.078Z,971.99
2017-04-02T14:00:47.146Z,971.95
2017-04-02T14:01:55.939Z,972
2017-04-02T14:03:04.694Z,972.03
2017-04-02T14:04:13.454Z,972
2017-04-02T14:05:22.521Z,972
2017-04-02T14:06:31.281Z,972.03
2017-04-02T14:07:40.072Z,971.99
2017-04-02T14:08:48.777Z,971.96
2017-04-02T14:09:57.541Z,971.99
2017-04-02T14:11:06.921Z,972.05
2017-04-02T14:12:15.683Z,972.01
2017-04-02T14:13:24.703Z,972.06
2017-04-02T14:14:33.465Z,972.06
2017-04-02T14:15:42.539Z,972.06
2017-04-02T14:16:51.297Z,972.11
2017-04-02T14:18:00.356Z,972.13
2017-04-02T14:19:09.120Z,972.12
2017-04-02T14:20:17.881Z,972.1
2017-04-02T14:21:26.643Z,972.11
2017-04-02T14:22:35.734Z,972.14